Mason Valley Wildlife Refuge, Nevada Weather observations

Data are for 10 minute period ending at time listed.
 Day   Time   Solar   Ave.   Ave.  Ave.  Vector  Max.   Baro.   Total    
  of    of     Rad.   Air    Rel.  Wind   Wind   Wind  Press.  Precip.   
Year   Day            Temp.  Hum.  Speed  Dir.   Gust                    
2014   (PST)  Kw/m2    F      %     mph   deg.    mph    mb.     in.     
-------------------------------------------------------------------------
 259    0:00   0.00   60.5    60    0.9   228     3.5   868.3    0.00 
 259    0:10   0.00   61.5    58    2.5   257     3.8   868.3    0.00 
 259    0:20   0.00   59.1    63    2.2   212     4.2   868.4    0.00 
 259    0:30   0.00   57.9    58    2.7   115     4.9   868.4    0.00 
 259    0:40   0.00   58.0    54    1.3   129     3.3   868.5    0.00 
 259    0:50   0.00   58.0    55    0.6    32     2.8   868.5    0.00 
 259    1:00   0.00   58.2    58    2.2   306     3.4   868.6    0.00 
 259    1:10   0.00   57.6    62    1.9    16     4.4   868.6    0.00 
 259    1:20   0.00   56.8    59    1.8    35     3.4   868.6    0.00 
 259    1:30   0.00   56.5    57    2.1    79     3.3   868.5    0.00 
 259    1:40   0.00   57.2    56    1.5   163     4.0   868.5    0.00 
 259    1:50   0.00   56.5    62    0.7   258     1.8   868.5    0.00 
 259    2:00   0.00   56.5    63    0.4   236     1.8   868.4    0.00 
 259    2:10   0.00   54.9    66    0.3    86     2.0   868.4    0.00 
 259    2:20   0.00   55.4    64    1.2    94     2.8   868.4    0.00 
 259    2:30   0.00   55.4    65    0.1   131     2.1   868.4    0.00 
 259    2:40   0.00   55.0    64    1.2   136     2.1   868.4    0.00 
 259    2:50   0.00   53.5    68    1.4    16     5.5   868.4    0.00 
 259    3:00   0.00   54.7    64    1.3    86     2.3   868.3    0.00 
 259    3:10   0.00   53.2    69    3.3   259     7.3   868.4    0.00 
 259    3:20   0.00   53.2    72    3.1   262     4.8   868.4    0.00 
 259    3:30   0.00   52.8    73    2.1   250     4.6   868.3    0.00 
 259    3:40   0.00   51.5    76    1.2   207     2.3   868.3    0.00 
 259    3:50   0.00   53.0    72    1.3   241     2.8   868.3    0.00 
 259    4:00   0.00   52.7    72    0.8   167     2.8   868.3    0.00 
 259    4:10   0.00   51.5    75    1.9   210     3.7   868.3    0.00 
 259    4:20   0.00   51.5    73    1.5   137     4.0   868.3    0.00 
 259    4:30   0.00   50.1    72    2.0   135     4.7   868.4    0.00 
 259    4:40   0.00   49.4    73    2.2   110     5.0   868.4    0.00 
 259    4:50   0.00   49.3    74    1.4   126     5.3   868.4    0.00 
 259    5:00   0.00   49.6    72    1.9   165     2.9   868.4    0.00 
 259    5:10   0.00   49.4    72    1.4   158     2.3   868.5    0.00 
 259    5:20   0.00   49.6    70    1.3   135     2.1   868.5    0.00 
 259    5:30   0.00   48.8    71    1.4   156     2.7   868.5    0.00 
 259    5:40   0.00   48.9    70    1.2   195     2.6   868.6    0.00 
 259    5:50   0.01   48.1    71    1.4   118     3.5   868.7    0.00 
 259    6:00   0.02   48.0    71    0.9   159     2.8   868.7    0.00 
 259    6:10   0.04   48.6    71    2.4   168     3.4   868.7    0.00 
 259    6:20   0.06   49.9    72    1.5   187     2.7   868.7    0.00 
 259    6:30   0.09   52.0    74    0.7   151     1.9   868.8    0.00 
 259    6:40   0.12   55.4    71    0.3   122     1.1   868.8    0.00 
 259    6:50   0.15   58.3    68    0.9   179     2.0   868.8    0.00 
 259    7:00   0.18   60.0    65    1.5   236     3.9   868.8    0.00 
 259    7:10   0.21   62.2    63    0.6   320     2.0   868.8    0.00 
 259    7:20   0.24   64.3    58    0.7    77     2.3   868.8    0.00 
 259    7:30   0.28   66.9    52    0.6   212     2.2   868.8    0.00 
 259    7:40   0.31   68.5    52    0.3   291     1.8   868.7    0.00 
 259    7:50   0.34   69.5    54    1.4   259     3.9   868.7    0.00 
 259    8:00   0.38   68.5    53    2.4   245     3.5   868.7    0.00 
 259    8:10   0.41   70.1    50    1.2   242     3.1   868.6    0.00 
 259    8:20   0.45   72.2    44    0.9    10     2.6   868.6    0.00 
 259    8:30   0.48   73.3    41    0.8    23     1.8   868.5    0.00 
 259    8:40   0.51   75.4    38    1.2    88     2.6   868.5    0.00 
 259    8:50   0.54   76.7    35    0.5   249     1.7   868.3    0.00 
 259    9:00   0.57   77.4    35    0.6   232     2.8   868.2    0.00 
 259    9:10   0.60   79.7    34    0.1     4     1.3   868.1    0.00 
 259    9:20   0.62   78.1    35    3.0    46     5.3   868.0    0.00 
 259    9:30   0.65   78.6    34    1.7    32     3.8   868.0    0.00 
 259    9:40   0.67   79.0    34    1.8   263     3.9   867.9    0.00 
 259    9:50   0.70   80.4    33    2.1   356     5.6   867.9    0.00 
 259   10:00   0.72   79.8    34    2.7    52     6.6   867.8    0.00 
 259   10:10   0.74   81.0    32    3.5   105     7.4   867.8    0.00 
 259   10:20   0.76   82.3    31    1.9    66     8.3   867.6    0.00 
 259   10:30   0.77   82.2    31    3.3    32     7.9   867.6    0.00 
 259   10:40   0.79   82.0    30    3.5    34     6.6   867.6    0.00 
 259   10:50   0.80   83.1    30    2.7    19     7.7   867.5    0.00 
 259   11:00   0.82   83.9    28    3.3   132     9.3   867.4    0.00 
 259   11:10   0.83   85.5    25    1.7   138     6.1   867.3    0.00 
 259   11:20   0.84   85.2    26    4.4   103     9.5   867.2    0.00 
 259   11:30   0.85   85.7    30    2.3    13     8.3   867.0    0.00 
 259   11:40   0.86   87.0    23    3.4   132    13.6   866.9    0.00 
 259   11:50   0.87   87.2    24    3.2   188    12.2   866.7    0.00 
 259   12:00   0.87   87.1    23    5.1   170    11.1   866.6    0.00 
 259   12:10   0.86   87.7    21    4.2   168     9.8   866.4    0.00 
 259   12:20   0.87   87.7    23    4.0   280     7.5   866.3    0.00 
 259   12:30   0.86   88.1    20    3.6   313     6.1   866.2    0.00 
 259   12:40   0.86   87.8    22    4.7   279    11.0   866.2    0.00 
 259   12:50   0.85   88.6    20    3.7   131     9.3   866.0    0.00 
 259   13:00   0.85   88.5    20    3.9   330     8.9   865.9    0.00 
 259   13:10   0.84   89.0    19    4.7   252    11.2   865.8    0.00 
 259   13:20   0.82   87.9    20    7.8   248    13.4   865.7    0.00 
 259   13:30   0.81   88.2    19    8.6   236    15.3   865.6    0.00 
 259   13:40   0.79   88.0    20    9.0   241    15.5   865.4    0.00 
 259   13:50   0.78   88.2    20    5.7   242    11.8   865.3    0.00 
 259   14:00   0.76   89.4    18    5.6   246    10.6   865.2    0.00 
 259   14:10   0.74   88.8    19    6.2   250    14.4   865.1    0.00 
 259   14:20   0.71   88.1    20    7.0   244    13.2   865.0    0.00 
 259   14:30   0.69   88.0    18    9.2   249    14.0   864.9    0.00 
 259   14:40   0.67   88.0    20    6.5   246    10.4   864.8    0.00 
 259   14:50   0.64   88.1    20    7.8   256    15.6   864.7    0.00 
 259   15:00   0.61   88.0    19    6.8   233    14.6   864.6    0.00 
 259   15:10   0.58   87.8    21    7.7   223    15.1   864.6    0.00 
 259   15:20   0.55   87.4    20    6.5   227    12.1   864.5    0.00 
 259   15:30   0.52   88.2    21    4.7   247    10.4   864.4    0.00 
 259   15:40   0.48   88.3    19    5.0   241     8.8   864.3    0.00 
 259   15:50   0.45   87.3    22    4.1   249    10.5   864.3    0.00 
 259   16:00   0.41   86.7    21    5.8   242    12.1   864.2    0.00 
 259   16:10   0.38   86.0    21    5.4   238    14.2   864.2    0.00 
 259   16:20   0.35   85.2    21    5.6   236    11.0   864.2    0.00 
 259   16:30   0.31   84.9    19    6.6   235    11.0   864.1    0.00 
 259   16:40   0.28   84.9    20    6.0   238    16.0   864.1    0.00 
 259   16:50   0.25   84.4    20    5.6   236     9.9   864.1    0.00 
 259   17:00   0.13   83.4    22    3.5   254     8.4   864.1    0.00 
 259   17:10   0.06   83.0    20    3.7   276     8.3   864.1    0.00 
 259   17:20   0.12   81.5    22    2.7   243     7.5   864.1    0.00 
 259   17:30   0.14   81.8    22    1.3   342     3.3   864.1    0.00 
 259   17:40   0.11   82.1    21    2.0   255     3.7   864.2    0.00 
 259   17:50   0.07   81.0    21    2.8   288     5.3   864.1    0.00 
 259   18:00   0.02   80.4    21    1.5   304     2.5   864.1    0.00 
 259   18:10   0.01   79.5    20    2.3   266     3.4   864.1    0.00 
 259   18:20   0.00   78.9    20    1.6   299     3.2   864.1    0.00 
 259   18:30   0.00   79.7    19    3.1   304     6.2   864.2    0.00 
 259   18:40   0.00   77.1    22    2.0   270     4.7   864.2    0.00 
 259   18:50   0.00   76.6    22    2.4   297     4.8   864.4    0.00 
 259   19:00   0.00   75.6    23    3.4   319     5.5   864.5    0.00 
 259   19:10   0.00   75.6    22    3.2   306     6.6   864.7    0.00 
 259   19:20   0.00   77.5    20    4.4   314     7.7   864.7    0.00 
 259   19:30   0.00   75.5    23    2.4   279     6.3   864.8    0.00 
 259   19:40   0.00   74.6    23    2.3   274     4.1   864.9    0.00 
 259   19:50   0.00   76.5    21    2.3   320     3.9   865.0    0.00 
 259   20:00   0.00   75.5    22    2.3   318     3.7   865.0    0.00 
 259   20:10   0.00   75.4    22    3.3   310     4.6   865.0    0.00 
 259   20:20   0.00   76.5    21    2.4   331     3.8   865.1    0.00 
 259   20:30   0.00   72.9    28    2.2   211     4.8   865.2    0.00 
 259   20:40   0.00   69.0    31    2.9   136     5.4   865.2    0.00 
 259   20:50   0.00   68.5    29    1.4   111     4.6   865.3    0.00 
 259   21:00   0.00   67.7    29    1.4   153     5.4   865.3    0.00 
 259   21:10   0.00   73.7    23    3.1   108     4.8   865.4    0.00 
 259   21:20   0.00   65.9    35    3.6    89     6.7   865.4    0.00 
 259   21:30   0.00   66.9    31    3.1    48     6.6   865.5    0.00 
 259   21:40   0.00   64.8    35    2.5    29     6.6   865.6    0.00 
 259   21:50   0.00   64.9    36    3.2    64     4.9   865.6    0.00 
 259   22:00   0.00   64.0    40    2.9    32     4.5   865.6    0.00 
 259   22:10   0.00   65.8    38    3.8    60     5.6   865.6    0.00 
 259   22:20   0.00   64.1    39    2.9    82     5.7   865.7    0.00 
 259   22:30   0.00   62.6    39    2.5    36     6.0   865.7    0.00 
 259   22:40   0.00   65.0    35    2.5    37     4.5   865.7    0.00 
 259   22:50   0.00   64.5    36    1.3   298     3.4   865.8    0.00 
 259   23:00   0.00   63.9    40    2.3   342     3.7   865.8    0.00 
 259   23:10   0.00   63.0    44    2.1    33     3.0   865.9    0.00 
 259   23:20   0.00   61.7    48    3.1   197     6.6   865.9    0.00 
 259   23:30   0.00   60.9    49    2.3   145     6.9   865.9    0.00 
 259   23:40   0.00   58.9    53    1.6   170     3.4   866.0    0.00 

Return to Mason Valley Wildlife Refuge graphs page.


Western Regional Climate Center,wrcc@dri.edu